Thursday, May 24, 2018, 12:20 AM EDT
Back to Local

KMQE, Milton Blue Hill Observ

Location: Milton, MA, United States Lat: 42.217
Local Time: 12:20 AM EDT ( 4:20 GMT) Lon: -71.117
Time Zone: US/Eastern Elev: 629 ft

Show me the last for .
Show Decoded

2018-05-23 23:56 METAR KMQE 240356Z AUTO 03013KT 14/13 A2996 RMK AO1 SLP153 T01390128 =
2018-05-23 22:56 METAR KMQE 240256Z AUTO 04010KT 17/12 A2995 RMK AO1 SLP150 60005 T01670122 50025
                 =
2018-05-23 21:56 METAR KMQE 240156Z AUTO 06007KT 17/14 A2996 RMK AO1 PK WND 32029/0110 SLP153
                 P0005 T01670144 =
2018-05-23 20:56 METAR KMQE 240056Z AUTO 35009G14KT 22/10 A2990 RMK AO1 SLP133 T02170100 =
2018-05-23 19:56 METAR KMQE 232356Z AUTO 30007KT 23/09 A2988 RMK AO1 SLP125 T02330089 10278 20228
                 53012 =
2018-05-23 18:56 METAR KMQE 232256Z AUTO 30009KT 24/08 A2986 RMK AO1 SLP119 T02440078 =
2018-05-23 17:56 METAR KMQE 232156Z AUTO 31009G21KT 27/06 A2984 RMK AO1 SLP111 T02670061 =
2018-05-23 16:56 METAR KMQE 232056Z AUTO 29006KT 28/11 A2984 RMK AO1 SLP113 T02780106 56008 =
2018-05-23 15:56 METAR KMQE 231956Z AUTO 26009KT 26/10 A2984 RMK AO1 SLP114 T02610100 =
2018-05-23 14:56 METAR KMQE 231856Z AUTO 32006KT 26/11 A2986 RMK AO1 SLP119 T02560106 =
2018-05-23 13:56 METAR KMQE 231756Z AUTO 33010G15KT 300V030 25/12 A2986 RMK AO1 SLP121 T02500122
                 10250 20144 58004 =
2018-05-23 12:56 METAR KMQE 231656Z AUTO VRB06KT 23/13 A2987 RMK AO1 SLP124 T02330128 =
2018-05-23 11:56 METAR KMQE 231556Z AUTO 32005KT 22/14 A2988 RMK AO1 SLP127 T02220139 =
2018-05-23 10:56 METAR KMQE 231456Z AUTO 35008G14KT 21/13 A2988 RMK AO1 SLP126 T02060133 53003 =
2018-05-23 09:56 METAR KMQE 231356Z AUTO 33011G19KT 19/13 A2986 RMK AO1 SLP121 T01890133 =
2018-05-23 08:56 METAR KMQE 231256Z AUTO 32010G16KT 17/14 A2986 RMK AO1 SLP122 T01720139 =
2018-05-23 07:56 METAR KMQE 231156Z AUTO 29007KT 14/13 A2987 RMK AO1 SLP124 70003 T01440133 10144
                 20106 53002 =
2018-05-23 06:56 METAR KMQE 231056Z AUTO 25006KT 12/12 A2986 RMK AO1 SLP123 T01220122 =
2018-05-23 05:56 METAR KMQE 230956Z AUTO 24009KT 11/11 A2986 RMK AO1 SLP121 T01110111 =
2018-05-23 04:56 METAR KMQE 230856Z AUTO 23008KT 11/11 A2986 RMK AO1 SLP122 T01110111 55008 =
2018-05-23 03:56 METAR KMQE 230756Z AUTO 23007KT 11/11 A2986 RMK AO1 SLP120 T01060106 =
2018-05-23 02:56 METAR KMQE 230656Z AUTO 21010KT 11/11 A2986 RMK AO1 SLP123 T01060106 =
2018-05-23 01:56 METAR KMQE 230556Z AUTO 21009KT 11/11 A2989 RMK AO1 SLP131 T01060106 10122 20106
                 58024 =
2018-05-23 00:56 METAR KMQE 230456Z AUTO 20010KT 11/10 A2991 RMK AO1 SLP139 T01060100 402000106 =

Support USWX by starting your Amazon purchase here.